Glasco, NY (12432)

8:03 AM EDT on August 20, 2017 (GMT -0400)
Barclay Heights | | Change Station

Elev 154 ft 42.05 °N, 73.96 °W | Updated 11 seconds ago

Clear
Clear
71.0 °F
Feels Like 72 °F
N
0.0
Wind Variable Wind from South

Today
High -- | Low -- °F
--% Chance of Precip.
Yesterday
High -- | Low -- °F
Precip. -- in
Pressure 29.99 in
Visibility 10.0 miles
Clouds Clear
Heat Index 72 °F
Dew Point 64 °F
Humidity 79%
Rainfall 0.00 in
Snow Depth Not available.
6:09 AM 7:48 PM
Waning Crescent, 2% visible
METAR KPOU 201153Z 25004KT 10SM CLR 20/16 A3000 RMK AO2 SLP155 T02000161 10211 20172 51021
Pressure 29.99 in
Visibility 10.0 miles
Clouds Clear
Heat Index 72 °F
Dew Point 64 °F
Humidity 79%
Rainfall 0.00 in
Snow Depth Not available.
6:09 AM 7:48 PM
Waning Crescent, 2% visible
METAR KPOU 201153Z 25004KT 10SM CLR 20/16 A3000 RMK AO2 SLP155 T02000161 10211 20172 51021

Get Severe Weather Alerts

Thanks for signing up!

Be on the lookout for a verification email in your inbox.

You'll start receiving the daily forecast at 6 AM.

×

10-Day Weather Forecast

Almanac

Astronomy

Aug. 20, 2017 Rise Set
Actual Time
Civil Twilight
Nautical Twilight
Astronomical Twilight
Moon
Length of Visible Light
Length of Day
Tomorrow will be .
, % of the Moon is Illuminated

Today's Extremes

State Highs State Lows

Community

WunderPhotos

Category 6

Welcome to Category 6. This is the collective home for Weather Underground's featured writeups by Dr. Jeff Masters (right), Bob Henson (left), Chris Burt, and other regular contributors.

Nearby

Air Quality

  Air Quality AQ Index Pollutant
Not available.

Snow Depth

Station Depth Elevation

Earthquake Activity

City Distance Mag. Time & Date
Minimum magnitude displayed is 2.5.

Coastal Water Temperatures

Place Temperature

Stations

Nearby Weather Stations

Station Location Temp. Windchill Dew Point Humidity Wind Precip. Elev Updated Type
                   

Watches & Warnings

There are currently no watches in effect.